x

Monterey - 27nm Wnw Of Monterey, Ca (46042) Wave Buoy

12:50am - Fri 30th Jan 2015 All times are PST. -8 hours from GMT.

  • Sig Wave height 7.2ft
  • Swell Direction
  • Peak Period 17s
  • Average Period 6s
  • Wind
    20mph, 25mph gusts
  • Sea Temp 58°f
  • Air Temp 56°f
  • Sea Pressure 1017.8mb
  • Monterey - 27nm Wnw Of Monterey, Ca
  • Monterey - 27nm Wnw Of Monterey, Ca

More Historic Weather Station data

Upgrade to MSW Pro to gain access to the past 30 days of data for over 8000 Wavebouys and Weather Stations around the globe.

Join Pro

Comparision Forecast

View Surf forecast
   
Fri 01/30 12:50am 7ft 17s 6s 20 25 mph 1017.8mb 58f 56f
Thu 01/29 11:50pm 7.5ft 17s 7s 22 25 mph 1018.3mb 58f 56f
10:50pm 7.5ft 17s 6s 22 27 mph 1018.2mb 58f 57f
9:50pm 8ft 17s 7s 22 27 mph 1017.9mb 58f 57f
8:50pm 7ft 17s 6s 22 27 mph 1018.3mb 59f 57f
7:50pm 7.5ft 17s 6s 25 31 mph 1018.1mb 59f 57f
6:50pm 7.5ft 17s 6s 22 27 mph 1018.1mb 59f 57f
5:50pm 8ft 17s 7s 22 27 mph 1017.9mb 59f 57f
4:50pm 7ft 17s 7s 22 27 mph 1017.7mb 59f 57f
3:50pm 7ft 17s 7s 22 27 mph 1018mb 59f 57f
2:50pm 5.5ft 17s 7s 20 25 mph 1018.3mb 59f 58f
1:50pm 5.5ft 17s  -  16 18 mph 1018.6mb 59f 58f
12:50pm 6ft 19s 8s 11 13 mph 1019.3mb 59f 58f
11:50am 6.5ft 19s 8s 7 9 mph 1020.3mb 59f 57f
9:50am 6ft 19s 8s 7 9 mph 1020.9mb 58f 56f
8:50am 6.5ft 19s 8s 7 9 mph 1020.6mb 58f 56f
7:50am 6ft 19s 7s 9 13 mph 1020.3mb 58f 56f
6:50am 6ft 13s 7s 11 13 mph 1020.1mb 58f 56f
5:50am 7ft 19s 8s 13 16 mph 1019.9mb 58f 56f
4:50am 6ft 19s 7s 13 16 mph 1020mb 58f 56f
3:50am 5.5ft 12s 7s 16 18 mph 1020.4mb 58f 56f
2:50am 5.5ft 19s 7s 18 20 mph 1020.8mb 59f 56f
1:50am 6ft 12s 8s 16 18 mph 1021.2mb 59f 56f
12:50am 5.5ft 13s 7s 13 18 mph 1021.5mb 59f 56f
Wed 01/28 11:50pm 5.5ft 12s 7s 16 18 mph 1021.9mb 59f 57f
10:50pm 6ft 12s 7s 18 20 mph 1021.6mb 59f 57f
9:50pm 5ft 12s 7s 18 20 mph 1021.8mb 59f 57f
8:50pm 5ft 13s 6s 18 20 mph 1021.8mb 59f 57f
7:50pm 5.5ft 13s 7s 20 22 mph 1021.7mb 59f 58f
6:50pm 5ft 12s 7s 18 22 mph 1021.4mb 59f 58f
5:50pm 5.5ft 13s 8s 16 18 mph 1021.4mb 59f 59f
4:50pm 5.5ft 13s 9s 18 20 mph 1021mb 60f 60f
3:50pm 5ft 13s 10s 16 18 mph 1021.1mb 60f 59f
2:50pm 5ft 14s 10s 4 7 mph 1021.8mb 60f 58f
1:50pm 5ft 11s 10s 4
mph
1022.2mb 59f 58f
12:50pm 5.5ft 14s 10s 2 4 mph 1022.9mb 59f 58f
11:50am 5.5ft 14s 9s 4 7 mph 1023.7mb 59f 58f
10:50am 5ft 14s 9s 9 11 mph 1024.3mb 59f 57f
9:50am 5ft 14s 9s 7 9 mph 1024.4mb 58f 57f
8:50am 6ft 14s 10s 4 7 mph 1024.6mb 58f 58f
7:50am 6ft 12s 10s 2 4 mph 1024.1mb 58f 58f
6:50am 6ft 14s 10s 7 9 mph 1023.5mb 58f 57f
5:50am 5ft 13s 10s 7 9 mph 1023.6mb 58f 57f
4:50am 5.5ft 14s 11s 9 11 mph 1023.6mb 58f 57f
3:50am 5.5ft 14s 10s 4 7 mph 1023.8mb 58f 58f
2:50am 5.5ft 14s 10s 4
mph
1023.9mb 58f 58f
1:50am 6ft 13s 10s 2 4 mph 1023.9mb 58f 58f
12:50am 5ft 14s 10s 4 7 mph 1023.8mb 58f 58f
Tue 01/27 11:50pm 6ft 14s 10s 7 9 mph 1024.2mb 59f 58f
10:50pm 6ft 14s 10s 7
mph
1024.2mb 59f 58f
9:50pm 6.5ft 14s 11s 4 7 mph 1024.3mb 59f 58f
8:50pm 6ft 14s 10s 2 4 mph 1024.1mb 59f 58f
7:50pm 6ft 14s 10s 4
mph
1023.7mb 59f 59f
6:50pm 6ft 15s 10s 4
mph
1023.6mb 59f 58f
5:50pm 6ft 13s 9s 2 4 mph 1023.3mb 59f 58f
4:50pm 6ft 11s 9s 4 7 mph 1023.2mb 59f 59f
3:50pm 5.5ft 15s 8s 4 7 mph 1023.2mb 59f 59f
2:50pm 6ft 12s 8s 4 7 mph 1023mb 59f 59f
1:50pm 6ft 14s 8s 2 4 mph 1022.9mb 59f 59f
12:50pm 6.5ft 14s 9s 4 7 mph 1022.9mb 59f 59f
11:50am 6.5ft 14s 8s 2 4 mph 1023.2mb 59f 59f
10:50am 6.5ft 13s 8s 7 9 mph 1023.4mb 59f 60f
9:50am 6ft 13s 7s 7 9 mph 1022.8mb 58f 59f
8:50am 5.5ft 15s 7s 16 18 mph 1021.8mb 58f 60f
7:50am 7ft 13s 7s 13 20 mph 1021.3mb 58f 60f
6:50am 6.5ft 13s 7s 16 18 mph 1020.4mb 59f 59f
5:50am 7.5ft 14s 7s 25 29 mph 1018.9mb 59f 59f
4:50am 7ft 13s 7s 20 27 mph 1018.8mb 59f 60f
3:50am 8ft 14s 8s 20 25 mph 1018.4mb 59f 60f
2:50am 6.5ft 14s 8s 20 27 mph 1017.9mb 59f 60f
1:50am 7ft 13s 9s 18 22 mph 1017.9mb 59f 60f
12:50am 6ft 15s 11s 16 18 mph 1017.4mb 59f 60f
Mon 01/26 11:50pm 7ft 14s 12s 9 13 mph 1016.9mb 59f 59f
10:50pm 6ft 14s 11s 7 9 mph 1016.2mb 59f 59f
9:50pm 7ft 15s 12s 4 7 mph 1015.5mb 59f 60f
8:50pm 5.5ft 15s 11s 2 4 mph 1015.3mb 59f 59f
7:50pm 6.5ft 14s 11s 2 4 mph 1015.4mb 59f 59f
6:50pm 6.5ft 15s 11s 2
mph
1015.3mb 59f 59f
5:50pm 7.5ft 14s 12s 7 9 mph 1014.7mb 59f 59f
4:50pm 6.5ft 13s 11s 7 9 mph 1014.6mb 59f 59f
3:50pm 7.5ft 15s 12s 9 13 mph 1014.5mb 59f 59f
2:50pm 7ft 15s 11s 7
mph
1014.7mb 59f 59f
1:50pm 7.5ft 15s 11s 7 9 mph 1014.5mb 59f 59f
12:50pm 7ft 15s 10s 9 11 mph 1015mb 59f 59f
11:50am 7ft 15s 10s 9 11 mph 1015.5mb 59f 58f
10:50am 6.5ft 15s 10s 11 13 mph 1016.1mb 59f 58f
9:50am 6.5ft 15s 9s 7 9 mph 1016.1mb 58f 59f